Time;durP1;ratioP1;P1;durP2;ratioP2;P2;SDS_P1;SDS_P2;PMS_P1;PMS_P2;Temp;Humidity;BMP_temperature;BMP_pressure;BME280_temperature;BME280_humidity;BME280_pressure;Samples;Min_cycle;Max_cycle;Signal;HPM_P1;HPM_P2
2022/09/10 00:01:22;;;;;;;1.43;1.00;;;12.30;99.90;;;;;;5095306;28;20209;-82
2022/09/10 00:03:50;;;;;;;1.83;1.20;;;12.20;99.90;;;;;;5106915;28;20222;-80
2022/09/10 00:06:19;;;;;;;2.83;1.10;;;12.20;99.90;;;;;;5115497;28;20209;-83
2022/09/10 00:08:47;;;;;;;1.63;0.90;;;12.10;99.90;;;;;;5115223;28;20213;-82
2022/09/10 00:11:16;;;;;;;2.33;1.20;;;12.10;99.90;;;;;;5107543;28;20207;-82
2022/09/10 00:13:44;;;;;;;1.80;0.90;;;12.10;99.90;;;;;;5095094;28;20214;-82
2022/09/10 00:16:16;;;;;;;3.47;1.37;;;12.00;99.90;;;;;;5094728;28;20705;-81
2022/09/10 00:18:45;;;;;;;2.77;1.40;;;12.00;99.90;;;;;;5094610;28;20292;-82
2022/09/10 00:21:16;;;;;;;3.83;1.37;;;12.00;99.90;;;;;;5094521;28;20320;-82
2022/09/10 00:23:44;;;;;;;1.33;1.23;;;11.90;99.90;;;;;;5099943;28;20229;-82
2022/09/10 00:26:15;;;;;;;1.80;0.90;;;11.90;99.90;;;;;;5115779;28;20304;-83
2022/09/10 00:28:43;;;;;;;1.87;0.90;;;11.80;99.90;;;;;;5113511;28;20206;-81
2022/09/10 00:31:13;;;;;;;1.37;0.80;;;11.70;99.90;;;;;;5114515;28;20229;-82
2022/09/10 00:33:41;;;;;;;2.90;0.80;;;11.70;99.90;;;;;;5114782;28;20225;-83
2022/09/10 00:36:18;;;;;;;2.40;0.90;;;11.70;99.90;;;;;;5114328;28;20206;-82
2022/09/10 00:38:46;;;;;;;1.63;0.90;;;11.60;99.90;;;;;;5114146;28;20190;-83
2022/09/10 00:41:16;;;;;;;0.90;0.70;;;11.60;99.90;;;;;;5114356;28;20223;-83
2022/09/10 00:43:49;;;;;;;2.70;0.70;;;11.60;99.90;;;;;;5114825;28;20252;-83
2022/09/10 00:46:26;;;;;;;0.70;0.70;;;11.50;99.90;;;;;;5108411;28;20584;-81
2022/09/10 00:48:57;;;;;;;1.17;0.80;;;11.50;99.90;;;;;;5094099;28;20248;-81
2022/09/10 00:51:28;;;;;;;2.17;0.60;;;11.50;99.90;;;;;;5094021;28;20191;-83
2022/09/10 00:53:58;;;;;;;0.73;0.50;;;11.50;99.90;;;;;;5094027;28;20210;-83
2022/09/10 00:56:27;;;;;;;0.70;0.47;;;11.50;99.90;;;;;;5094005;28;20332;-81
2022/09/10 00:58:55;;;;;;;2.20;0.93;;;11.50;99.90;;;;;;5093950;28;20298;-82
2022/09/10 01:01:25;;;;;;;2.20;0.70;;;11.50;99.90;;;;;;5094062;28;20207;-81
2022/09/10 01:03:54;;;;;;;1.70;0.80;;;11.50;99.90;;;;;;5093867;28;20234;-83
2022/09/10 01:06:23;;;;;;;1.03;0.60;;;11.50;99.90;;;;;;5093510;28;20215;-82
2022/09/10 01:08:51;;;;;;;3.07;0.80;;;11.40;99.90;;;;;;5093239;28;20242;-82
2022/09/10 01:11:42;;;;;;;3.80;0.80;;;11.40;99.90;;;;;;5093823;28;20565;-81
2022/09/10 01:14:30;;;;;;;0.93;0.60;;;11.40;99.90;;;;;;5093522;28;20634;-81
2022/09/10 01:17:10;;;;;;;1.60;0.70;;;11.40;99.90;;;;;;5093651;28;20209;-82
2022/09/10 01:20:17;;;;;;;1.43;0.70;;;11.40;99.90;;;;;;5093015;28;20218;-80
2022/09/10 01:23:10;;;;;;;0.60;0.60;;;11.30;99.90;;;;;;5113952;28;20233;-83
2022/09/10 01:25:53;;;;;;;0.97;0.70;;;11.30;99.90;;;;;;5113909;28;20278;-82
2022/09/10 01:28:30;;;;;;;2.43;0.70;;;11.30;99.90;;;;;;5113931;28;20217;-81
2022/09/10 01:31:05;;;;;;;0.60;0.60;;;11.30;99.90;;;;;;5098203;28;20238;-82
2022/09/10 01:33:37;;;;;;;0.60;0.60;;;11.30;99.90;;;;;;5093723;28;20284;-83
2022/09/10 01:36:11;;;;;;;2.27;1.07;;;11.30;99.90;;;;;;5093420;28;20198;-82
2022/09/10 01:38:41;;;;;;;2.67;0.70;;;11.30;99.90;;;;;;5093353;28;20209;-82
2022/09/10 01:41:09;;;;;;;1.90;1.00;;;11.20;99.90;;;;;;5092261;28;20213;-82
2022/09/10 01:43:40;;;;;;;1.90;0.83;;;11.20;99.90;;;;;;5095896;28;20900;-81
2022/09/10 01:46:21;;;;;;;2.33;0.90;;;11.20;99.90;;;;;;5093540;28;20195;-82
2022/09/10 01:49:05;;;;;;;2.03;0.90;;;11.20;99.90;;;;;;5093382;28;20206;-83
2022/09/10 01:51:50;;;;;;;0.80;0.80;;;11.20;99.90;;;;;;5092719;28;20218;-81
2022/09/10 01:54:36;;;;;;;5.80;0.90;;;11.20;99.90;;;;;;5093369;28;20191;-81
2022/09/10 01:57:13;;;;;;;2.83;1.20;;;11.20;99.90;;;;;;5091954;28;20297;-82
2022/09/10 01:59:49;;;;;;;1.70;0.90;;;11.30;99.90;;;;;;5092627;28;20214;-83
2022/09/10 02:02:22;;;;;;;1.63;0.70;;;11.30;99.90;;;;;;5093319;28;20201;-82
2022/09/10 02:04:52;;;;;;;1.90;1.00;;;11.30;99.90;;;;;;5105979;28;20279;-82
2022/09/10 02:07:23;;;;;;;2.53;0.93;;;11.40;99.90;;;;;;5113674;28;20210;-81
2022/09/10 02:09:51;;;;;;;2.27;1.00;;;11.40;99.90;;;;;;5113111;28;20214;-81
2022/09/10 02:12:21;;;;;;;1.37;1.00;;;11.50;99.90;;;;;;5113515;28;20214;-83
2022/09/10 02:14:54;;;;;;;1.53;0.90;;;11.60;99.90;;;;;;5113442;28;20296;-82
2022/09/10 02:17:26;;;;;;;2.07;0.80;;;11.60;99.90;;;;;;5113133;28;20218;-83
2022/09/10 02:19:55;;;;;;;1.37;0.90;;;11.70;99.90;;;;;;5111593;28;20224;-82
2022/09/10 02:22:24;;;;;;;2.30;0.80;;;11.70;99.90;;;;;;5112853;28;20255;-82
2022/09/10 02:24:52;;;;;;;2.30;0.90;;;11.70;99.90;;;;;;5112865;28;20271;-82
2022/09/10 02:27:20;;;;;;;3.80;1.00;;;11.70;99.90;;;;;;5095627;28;20221;-81
2022/09/10 02:29:48;;;;;;;3.23;0.93;;;11.70;99.90;;;;;;5092157;28;20214;-84
2022/09/10 02:32:18;;;;;;;1.90;0.80;;;11.80;99.90;;;;;;5092321;28;20219;-82
2022/09/10 02:34:47;;;;;;;1.63;0.70;;;11.80;99.90;;;;;;5092392;28;20199;-81
2022/09/10 02:37:15;;;;;;;2.10;1.00;;;11.70;99.90;;;;;;5110032;28;20206;-83
2022/09/10 02:39:44;;;;;;;3.17;1.30;;;11.70;99.90;;;;;;5112300;28;20198;-82
2022/09/10 02:42:16;;;;;;;1.37;0.83;;;11.70;99.90;;;;;;5113087;28;20216;-82
2022/09/10 02:44:46;;;;;;;2.47;1.10;;;11.70;99.90;;;;;;5112287;28;20224;-83
2022/09/10 02:47:14;;;;;;;2.30;0.90;;;11.70;99.90;;;;;;5088427;28;20286;-82
2022/09/10 02:49:44;;;;;;;1.43;0.90;;;11.60;99.90;;;;;;5093344;28;20206;-82
2022/09/10 02:52:12;;;;;;;1.70;1.00;;;11.60;99.90;;;;;;5095248;28;20202;-81
2022/09/10 02:54:40;;;;;;;3.33;1.00;;;11.60;99.90;;;;;;5091947;28;20203;-81
2022/09/10 02:57:08;;;;;;;3.03;1.00;;;11.60;99.90;;;;;;5092951;28;20211;-83
2022/09/10 02:59:36;;;;;;;5.00;1.20;;;11.60;99.90;;;;;;5094219;28;20207;-84
2022/09/10 03:02:04;;;;;;;2.30;0.90;;;11.60;99.90;;;;;;5093951;28;20210;-82
2022/09/10 03:04:33;;;;;;;2.87;0.90;;;11.50;99.90;;;;;;5094128;28;20226;-85
2022/09/10 03:07:02;;;;;;;1.67;0.93;;;11.50;99.90;;;;;;5098287;28;20191;-81
2022/09/10 03:09:30;;;;;;;3.70;1.27;;;11.50;99.90;;;;;;5110359;28;20211;-82
2022/09/10 03:11:58;;;;;;;1.30;0.80;;;11.40;99.90;;;;;;5094517;28;20221;-81
2022/09/10 03:14:29;;;;;;;1.97;1.00;;;11.40;99.90;;;;;;5092115;28;20203;-82
2022/09/10 03:16:57;;;;;;;2.13;0.83;;;11.30;99.90;;;;;;5091841;28;20213;-81
2022/09/10 03:19:25;;;;;;;2.43;1.00;;;11.30;99.90;;;;;;5095696;28;20218;-84
2022/09/10 03:21:53;;;;;;;1.53;1.00;;;11.20;99.90;;;;;;5103562;28;20726;-82
2022/09/10 03:24:24;;;;;;;1.77;1.00;;;11.20;99.90;;;;;;5112026;28;20259;-82
2022/09/10 03:26:52;;;;;;;2.73;1.17;;;11.10;99.90;;;;;;5106008;28;20290;-81
2022/09/10 03:29:21;;;;;;;2.10;1.10;;;11.00;99.90;;;;;;5091847;28;20207;-82
2022/09/10 03:31:50;;;;;;;3.20;1.00;;;11.00;99.90;;;;;;5110798;28;20202;-84
2022/09/10 03:34:19;;;;;;;2.73;1.20;;;10.90;99.90;;;;;;5116140;28;20309;-82
2022/09/10 03:36:47;;;;;;;2.23;0.90;;;10.80;99.90;;;;;;5112645;28;20214;-83
2022/09/10 03:39:17;;;;;;;6.57;1.50;;;10.80;99.90;;;;;;5095369;28;20198;-83
2022/09/10 03:41:46;;;;;;;1.43;1.20;;;10.80;99.90;;;;;;5095245;28;20268;-83
2022/09/10 03:44:16;;;;;;;2.10;1.20;;;10.80;99.90;;;;;;5095569;28;20231;-82
2022/09/10 03:46:44;;;;;;;1.53;1.10;;;10.70;99.90;;;;;;5112510;28;20202;-82
2022/09/10 03:49:12;;;;;;;1.47;1.30;;;10.70;99.90;;;;;;5115755;28;20206;-84
2022/09/10 03:51:40;;;;;;;3.47;1.33;;;10.60;99.90;;;;;;5115630;28;20206;-83
2022/09/10 03:54:08;;;;;;;3.33;1.40;;;10.60;99.90;;;;;;5115684;28;20206;-82
2022/09/10 03:56:36;;;;;;;1.53;1.10;;;10.60;99.90;;;;;;5115672;28;20206;-83
2022/09/10 03:59:06;;;;;;;2.63;1.20;;;10.60;99.90;;;;;;5115356;28;20218;-83
2022/09/10 04:01:34;;;;;;;3.20;1.20;;;10.50;99.90;;;;;;5115562;28;20267;-83
2022/09/10 04:04:02;;;;;;;1.73;1.40;;;10.50;99.90;;;;;;5110143;28;20228;-83
2022/09/10 04:06:32;;;;;;;2.30;1.20;;;10.50;99.90;;;;;;5094655;28;20694;-83
2022/09/10 04:09:00;;;;;;;2.20;1.10;;;10.50;99.90;;;;;;5095680;28;20680;-83
2022/09/10 04:11:28;;;;;;;3.67;1.20;;;10.50;99.90;;;;;;5114583;28;20202;-81
2022/09/10 04:13:56;;;;;;;2.40;1.30;;;10.50;99.90;;;;;;5112182;28;20206;-82
2022/09/10 04:16:26;;;;;;;2.63;1.20;;;10.50;99.90;;;;;;5115233;28;20723;-82
2022/09/10 04:18:54;;;;;;;1.90;1.30;;;10.50;99.90;;;;;;5115486;28;20284;-83
2022/09/10 04:21:23;;;;;;;4.50;1.40;;;10.50;99.90;;;;;;5113803;28;20609;-82
2022/09/10 04:23:54;;;;;;;1.97;1.30;;;10.50;99.90;;;;;;5114846;28;20233;-83
2022/09/10 04:26:22;;;;;;;3.80;1.33;;;10.50;99.90;;;;;;5114695;28;20214;-82
2022/09/10 04:28:50;;;;;;;2.40;1.30;;;10.50;99.90;;;;;;5115186;28;20217;-83
2022/09/10 04:31:18;;;;;;;3.10;1.43;;;10.50;99.90;;;;;;5115342;27;20206;-83
2022/09/10 04:33:48;;;;;;;3.93;1.40;;;10.60;99.90;;;;;;5115583;28;20214;-83
2022/09/10 04:36:18;;;;;;;4.33;1.57;;;10.60;99.90;;;;;;5105946;28;20237;-83
2022/09/10 04:38:46;;;;;;;2.13;1.30;;;10.60;99.90;;;;;;5095058;28;20198;-82
2022/09/10 04:41:14;;;;;;;4.53;1.50;;;10.60;99.90;;;;;;5094326;28;20707;-82
2022/09/10 04:43:44;;;;;;;3.13;1.50;;;10.60;99.90;;;;;;5095367;28;20290;-83
2022/09/10 04:46:12;;;;;;;1.40;1.30;;;10.60;99.90;;;;;;5115159;28;20588;-82
2022/09/10 04:48:41;;;;;;;5.57;1.50;;;10.70;99.90;;;;;;5097696;28;20207;-82
2022/09/10 04:51:12;;;;;;;2.27;1.30;;;10.70;99.90;;;;;;5094791;28;20851;-83
2022/09/10 04:53:45;;;;;;;2.33;1.27;;;10.70;99.90;;;;;;5094875;28;20191;-83
2022/09/10 04:56:13;;;;;;;2.33;1.30;;;10.80;99.90;;;;;;5101631;28;20206;-83
2022/09/10 04:58:42;;;;;;;3.13;1.20;;;10.90;99.90;;;;;;5115442;28;20202;-83
2022/09/10 05:01:11;;;;;;;1.90;1.40;;;10.90;99.90;;;;;;5105624;28;20206;-82
2022/09/10 05:03:39;;;;;;;2.13;1.20;;;11.00;99.90;;;;;;5093971;28;20288;-82
2022/09/10 05:06:08;;;;;;;2.17;1.20;;;11.10;99.90;;;;;;5093866;28;20322;-83
2022/09/10 05:08:37;;;;;;;1.90;1.10;;;11.10;99.90;;;;;;5094175;28;20573;-82
2022/09/10 05:11:06;;;;;;;1.83;1.20;;;11.20;99.90;;;;;;5093538;28;20302;-84
2022/09/10 05:13:34;;;;;;;1.77;1.33;;;11.30;99.90;;;;;;5093545;28;20210;-83
2022/09/10 05:16:02;;;;;;;2.13;1.30;;;11.40;99.90;;;;;;5094070;28;20245;-84
2022/09/10 05:18:30;;;;;;;2.57;1.20;;;11.40;99.90;;;;;;5093562;28;20210;-81
2022/09/10 05:20:58;;;;;;;2.77;1.03;;;11.50;99.90;;;;;;5093678;28;20564;-83
2022/09/10 05:23:26;;;;;;;4.27;1.10;;;11.60;99.90;;;;;;5094676;28;20211;-82
2022/09/10 05:25:56;;;;;;;2.03;1.10;;;11.70;99.90;;;;;;5093868;28;20595;-84
2022/09/10 05:28:24;;;;;;;5.50;1.43;;;11.70;99.90;;;;;;5094585;28;20210;-82
2022/09/10 05:30:52;;;;;;;2.83;1.30;;;11.80;99.90;;;;;;5113577;28;20206;-81
2022/09/10 05:33:20;;;;;;;2.33;1.10;;;11.90;99.90;;;;;;5112438;28;20228;-83
2022/09/10 05:35:50;;;;;;;2.10;1.20;;;11.90;99.90;;;;;;5113642;28;20206;-83
2022/09/10 05:38:19;;;;;;;2.17;1.10;;;12.00;99.90;;;;;;5113508;28;20206;-83
2022/09/10 05:40:47;;;;;;;4.47;1.30;;;12.00;99.90;;;;;;5112392;28;20206;-84
2022/09/10 05:43:16;;;;;;;1.23;1.10;;;12.10;99.90;;;;;;5093689;28;20210;-82
2022/09/10 05:45:44;;;;;;;1.57;1.20;;;12.10;99.90;;;;;;5112728;28;20226;-83
2022/09/10 05:48:12;;;;;;;3.30;1.47;;;12.20;99.90;;;;;;5113158;28;20206;-81
2022/09/10 05:50:40;;;;;;;2.27;1.30;;;12.20;99.90;;;;;;5113417;28;20202;-83
2022/09/10 05:53:09;;;;;;;3.10;1.20;;;12.20;99.90;;;;;;5098596;28;20229;-83
2022/09/10 05:55:37;;;;;;;2.30;1.10;;;12.20;99.90;;;;;;5093615;28;20202;-82
2022/09/10 05:58:05;;;;;;;3.40;1.40;;;12.30;99.90;;;;;;5093316;28;20211;-83
2022/09/10 06:00:35;;;;;;;4.83;1.70;;;12.30;99.90;;;;;;5092651;28;20203;-82
2022/09/10 06:03:04;;;;;;;3.67;1.67;;;12.30;99.90;;;;;;5092445;28;20256;-83
2022/09/10 06:05:32;;;;;;;4.03;1.90;;;12.30;99.90;;;;;;5092826;28;20219;-83
2022/09/10 06:08:00;;;;;;;2.90;1.70;;;12.30;99.90;;;;;;5092871;28;20207;-82
2022/09/10 06:10:35;;;;;;;8.27;2.40;;;12.30;99.90;;;;;;5102521;28;20649;-83
2022/09/10 06:13:03;;;;;;;7.10;2.53;;;12.40;99.90;;;;;;5112676;28;20213;-83
2022/09/10 06:15:31;;;;;;;5.33;2.10;;;12.40;99.90;;;;;;5098009;28;20219;-82
2022/09/10 06:18:01;;;;;;;3.17;1.73;;;12.40;99.90;;;;;;5092145;28;20611;-82
2022/09/10 06:20:29;;;;;;;3.37;1.60;;;12.40;99.90;;;;;;5110356;28;20210;-83
2022/09/10 06:22:59;;;;;;;0.80;0.80;;;12.50;99.90;;;;;;5105627;28;20210;-80
2022/09/10 06:25:27;;;;;;;3.20;1.10;;;12.50;99.90;;;;;;5100875;28;20690;-81
2022/09/10 06:27:55;;;;;;;3.97;1.00;;;12.60;99.90;;;;;;5112641;28;20656;-78
2022/09/10 06:30:23;;;;;;;1.80;1.30;;;12.50;99.90;;;;;;5112507;28;20213;-79
2022/09/10 06:32:51;;;;;;;1.90;0.90;;;12.60;99.90;;;;;;5100003;28;20207;-79
2022/09/10 06:35:20;;;;;;;1.50;1.00;;;12.60;99.90;;;;;;5092494;28;20206;-78
2022/09/10 06:37:49;;;;;;;2.60;1.13;;;12.60;99.90;;;;;;5091949;28;20211;-77
2022/09/10 06:40:17;;;;;;;4.43;1.30;;;12.60;99.90;;;;;;5091769;28;20199;-78
2022/09/10 06:42:45;;;;;;;1.60;0.90;;;12.60;99.90;;;;;;5091693;28;20209;-78
2022/09/10 06:45:13;;;;;;;1.03;1.00;;;12.70;99.90;;;;;;5092265;28;20211;-79
2022/09/10 06:47:41;;;;;;;3.83;1.20;;;12.60;99.90;;;;;;5092132;28;20238;-78
2022/09/10 06:50:31;;;;;;;3.10;1.27;;;12.70;99.90;;;;;;5095460;28;20203;-78
2022/09/10 06:52:59;;;;;;;3.03;1.33;;;12.70;99.90;;;;;;5092332;28;20296;-77
2022/09/10 06:55:27;;;;;;;3.43;1.30;;;12.70;99.90;;;;;;5105140;28;20214;-79
2022/09/10 06:57:55;;;;;;;3.20;1.53;;;12.80;99.90;;;;;;5112493;28;20255;-78
2022/09/10 07:00:23;;;;;;;3.17;1.60;;;12.80;99.90;;;;;;5112026;28;20206;-79
2022/09/10 07:02:52;;;;;;;2.97;1.10;;;12.70;99.90;;;;;;5108629;28;20210;-78
2022/09/10 07:05:20;;;;;;;1.17;1.07;;;12.70;99.90;;;;;;5093269;28;20218;-78
2022/09/10 07:07:49;;;;;;;3.03;1.17;;;12.70;99.90;;;;;;5095868;28;20226;-77
2022/09/10 07:10:17;;;;;;;6.07;1.20;;;12.70;99.90;;;;;;5096151;28;20207;-79
2022/09/10 07:12:45;;;;;;;2.37;1.27;;;12.70;99.90;;;;;;5096072;28;20606;-79
2022/09/10 07:15:13;;;;;;;4.10;1.37;;;12.80;99.90;;;;;;5113691;28;20226;-75
2022/09/10 07:17:41;;;;;;;1.27;1.17;;;12.80;99.90;;;;;;5110731;28;20233;-76
2022/09/10 07:20:10;;;;;;;2.67;1.10;;;12.90;99.90;;;;;;5096692;28;20190;-77
2022/09/10 07:22:38;;;;;;;2.10;1.27;;;12.90;99.90;;;;;;5110184;28;20236;-77
2022/09/10 07:25:09;;;;;;;2.87;1.20;;;13.00;99.90;;;;;;5115959;28;20216;-78
2022/09/10 07:27:37;;;;;;;1.10;0.80;;;13.10;99.90;;;;;;5116525;28;20229;-78
2022/09/10 07:30:06;;;;;;;1.80;0.80;;;13.30;99.90;;;;;;5115551;28;20255;-78
2022/09/10 07:32:35;;;;;;;2.17;1.07;;;13.20;99.90;;;;;;5115017;28;20220;-78
2022/09/10 07:35:03;;;;;;;2.03;1.30;;;13.20;99.90;;;;;;5110133;28;20215;-77
2022/09/10 07:37:31;;;;;;;1.93;1.03;;;13.30;99.90;;;;;;5094982;28;20210;-77
2022/09/10 07:39:59;;;;;;;2.10;1.00;;;13.30;99.90;;;;;;5095684;28;20203;-78
2022/09/10 07:42:29;;;;;;;2.20;0.90;;;13.40;99.90;;;;;;5099284;28;20655;-77
2022/09/10 07:44:57;;;;;;;2.57;1.70;;;13.40;99.90;;;;;;5115957;28;20210;-77
2022/09/10 07:47:26;;;;;;;1.57;0.70;;;13.40;99.90;;;;;;5115978;28;20229;-77
2022/09/10 07:49:55;;;;;;;0.97;0.87;;;13.50;99.90;;;;;;5115940;28;20208;-78
2022/09/10 07:52:23;;;;;;;1.67;1.10;;;13.60;99.90;;;;;;5110043;28;20210;-76
2022/09/10 07:54:51;;;;;;;1.23;0.83;;;13.60;99.90;;;;;;5095600;28;20207;-76
2022/09/10 07:57:19;;;;;;;1.17;0.80;;;13.70;99.90;;;;;;5095318;28;20230;-78
2022/09/10 07:59:48;;;;;;;0.80;0.70;;;13.70;99.90;;;;;;5097096;28;20217;-77
2022/09/10 08:02:17;;;;;;;2.07;0.90;;;13.80;99.90;;;;;;5117412;28;20237;-77
2022/09/10 08:04:45;;;;;;;1.33;0.90;;;13.90;99.90;;;;;;5115562;28;20260;-78
2022/09/10 08:07:16;;;;;;;1.57;0.93;;;13.90;99.90;;;;;;5115076;28;20593;-78
2022/09/10 08:09:44;;;;;;;1.30;0.83;;;14.00;99.90;;;;;;5097855;28;20202;-76
2022/09/10 08:12:11;;;;;;;2.30;0.80;;;14.00;99.90;;;;;;5097256;28;20207;-77
2022/09/10 08:14:41;;;;;;;1.80;0.77;;;14.10;99.90;;;;;;5114847;28;20210;-76
2022/09/10 08:17:10;;;;;;;1.70;0.90;;;14.20;99.90;;;;;;5112600;28;20627;-78
2022/09/10 08:19:38;;;;;;;3.27;0.80;;;14.30;99.90;;;;;;5094288;28;20579;-77
2022/09/10 08:22:06;;;;;;;1.30;0.60;;;14.50;99.90;;;;;;5093986;28;20222;-76
2022/09/10 08:24:40;;;;;;;0.70;0.60;;;14.60;99.90;;;;;;5094795;28;20239;-78
2022/09/10 08:27:10;;;;;;;3.80;1.10;;;14.70;99.90;;;;;;5093837;28;20226;-77
2022/09/10 08:29:38;;;;;;;2.93;0.70;;;15.00;99.90;;;;;;5094078;28;20207;-79
2022/09/10 08:32:06;;;;;;;1.03;0.70;;;15.10;99.90;;;;;;5094624;28;20207;-78
2022/09/10 08:34:35;;;;;;;0.90;0.63;;;15.60;99.90;;;;;;5093998;28;20684;-77
2022/09/10 08:37:04;;;;;;;2.37;0.90;;;15.80;99.90;;;;;;5094456;28;20199;-77
2022/09/10 08:39:33;;;;;;;4.13;0.80;;;16.00;99.90;;;;;;5093762;28;20215;-78
2022/09/10 08:42:04;;;;;;;2.23;0.80;;;15.90;99.90;;;;;;5093927;28;20218;-79
2022/09/10 08:44:44;;;;;;;1.57;0.90;;;15.80;99.90;;;;;;5094237;28;20191;-78
2022/09/10 08:47:26;;;;;;;1.90;0.97;;;15.60;99.90;;;;;;5094655;28;20717;-78
2022/09/10 08:49:59;;;;;;;1.63;0.70;;;15.70;99.90;;;;;;5094065;28;20203;-78
2022/09/10 08:52:33;;;;;;;2.80;1.17;;;15.50;99.90;;;;;;5094591;28;20207;-80
2022/09/10 08:55:11;;;;;;;1.53;1.10;;;15.50;99.90;;;;;;5092647;28;20203;-79
2022/09/10 08:57:46;;;;;;;0.77;0.60;;;15.80;99.90;;;;;;5093815;28;20206;-79
2022/09/10 09:00:19;;;;;;;1.27;0.80;;;16.30;99.90;;;;;;5093887;28;20572;-81
2022/09/10 09:02:58;;;;;;;1.17;0.70;;;16.50;99.90;;;;;;5114373;28;20676;-79
2022/09/10 09:05:29;;;;;;;1.97;0.70;;;16.70;99.90;;;;;;5114705;28;20197;-80
2022/09/10 09:07:58;;;;;;;1.27;0.73;;;16.80;99.90;;;;;;5114030;28;20220;-80
2022/09/10 09:10:32;;;;;;;1.20;0.60;;;16.60;99.90;;;;;;5114234;28;20225;-78
2022/09/10 09:13:40;;;;;;;1.53;0.70;;;16.40;99.90;;;;;;5094133;28;20191;-80
2022/09/10 09:16:22;;;;;;;2.27;0.90;;;16.30;99.90;;;;;;5095438;28;20207;-79
2022/09/10 09:19:04;;;;;;;1.67;0.77;;;16.10;99.90;;;;;;5095429;28;20215;-81
